createdAt,value
2017-06-21T00:00:43.753Z,25.20
2017-06-21T00:03:09.876Z,25.20
2017-06-21T00:05:35.833Z,25.20
2017-06-21T00:08:01.766Z,25.20
2017-06-21T00:10:27.748Z,25.20
2017-06-21T00:12:53.680Z,25.20
2017-06-21T00:15:19.621Z,25.00
2017-06-21T00:17:45.587Z,24.90
2017-06-21T00:20:11.517Z,24.90
2017-06-21T00:22:37.435Z,25.00
2017-06-21T00:25:03.367Z,25.10
2017-06-21T00:27:29.348Z,25.00
2017-06-21T00:29:55.254Z,24.90
2017-06-21T00:32:21.176Z,24.80
2017-06-21T00:34:47.324Z,24.90
2017-06-21T00:37:13.247Z,25.00
2017-06-21T00:39:39.175Z,25.00
2017-06-21T00:42:05.105Z,24.70
2017-06-21T00:44:31.023Z,24.60
2017-06-21T00:46:56.944Z,24.50
2017-06-21T00:49:23.572Z,24.50
2017-06-21T00:51:49.522Z,24.40
2017-06-21T00:54:16.264Z,24.50
2017-06-21T00:56:42.203Z,24.40
2017-06-21T00:59:08.155Z,24.30
2017-06-21T01:01:34.131Z,24.50
2017-06-21T01:04:00.835Z,24.40
2017-06-21T01:06:26.748Z,24.30
2017-06-21T01:08:52.673Z,24.20
2017-06-21T01:11:18.615Z,24.20
2017-06-21T01:13:44.539Z,24.30
2017-06-21T01:16:10.471Z,24.40
2017-06-21T01:18:36.397Z,24.50
2017-06-21T01:21:02.325Z,24.40
2017-06-21T01:23:28.376Z,24.30
2017-06-21T01:25:54.286Z,24.40
2017-06-21T01:28:20.239Z,24.40
2017-06-21T01:30:46.174Z,24.40
2017-06-21T01:33:12.111Z,24.30
2017-06-21T01:35:38.024Z,24.30
2017-06-21T01:38:03.955Z,24.30
2017-06-21T01:40:29.874Z,24.30
2017-06-21T01:42:55.788Z,24.20
2017-06-21T01:45:21.775Z,24.20
2017-06-21T01:47:47.743Z,24.10
2017-06-21T01:50:13.671Z,23.90
2017-06-21T01:52:39.597Z,23.80
2017-06-21T01:55:05.518Z,23.80
2017-06-21T01:57:31.449Z,23.80
2017-06-21T01:59:57.368Z,23.90
2017-06-21T02:02:23.323Z,23.80
2017-06-21T02:04:49.280Z,23.70
2017-06-21T02:07:15.241Z,23.70
2017-06-21T02:09:41.208Z,23.50
2017-06-21T02:12:07.127Z,23.20
2017-06-21T02:14:33.055Z,23.00
2017-06-21T02:16:59.003Z,23.00
2017-06-21T02:19:25.012Z,23.00
2017-06-21T02:21:50.957Z,23.10
2017-06-21T02:24:17.543Z,22.90
2017-06-21T02:26:43.555Z,22.90
2017-06-21T02:29:09.474Z,23.00
2017-06-21T02:31:35.413Z,22.90
2017-06-21T02:34:01.328Z,23.00
2017-06-21T02:36:28.003Z,22.90
2017-06-21T02:38:53.951Z,23.00
2017-06-21T02:41:19.965Z,23.00
2017-06-21T02:43:45.921Z,23.00
2017-06-21T02:46:11.871Z,23.10
2017-06-21T02:48:37.799Z,23.10
2017-06-21T02:51:03.724Z,22.90
2017-06-21T02:53:29.640Z,22.90
2017-06-21T02:55:55.580Z,22.90
2017-06-21T02:58:21.499Z,22.80
2017-06-21T03:00:47.437Z,22.70
2017-06-21T03:03:13.384Z,22.70
2017-06-21T03:05:39.323Z,22.50
2017-06-21T03:08:06.146Z,22.50
2017-06-21T03:10:33.025Z,22.50
2017-06-21T03:12:58.944Z,22.50
2017-06-21T03:15:30.815Z,22.40
2017-06-21T03:17:56.787Z,22.40
2017-06-21T03:20:22.743Z,22.30
2017-06-21T03:22:48.696Z,22.40
2017-06-21T03:25:14.629Z,22.40
2017-06-21T03:27:40.542Z,22.40
2017-06-21T03:30:06.516Z,22.40
2017-06-21T03:32:32.469Z,22.50
2017-06-21T03:34:58.379Z,22.50
2017-06-21T03:37:24.323Z,22.40
2017-06-21T03:39:50.260Z,22.30
2017-06-21T03:42:16.233Z,22.30
2017-06-21T03:44:42.169Z,22.30
2017-06-21T03:47:08.115Z,22.30
2017-06-21T03:49:34.035Z,22.30
2017-06-21T03:52:00.106Z,22.30
2017-06-21T03:54:26.030Z,22.30
2017-06-21T03:56:51.987Z,22.20
2017-06-21T03:59:17.941Z,22.20
2017-06-21T04:01:43.863Z,22.20
2017-06-21T04:04:09.824Z,22.20
2017-06-21T04:06:35.724Z,22.30
2017-06-21T04:09:02.475Z,22.40
2017-06-21T04:11:28.395Z,22.40
2017-06-21T04:13:54.327Z,22.50
2017-06-21T04:16:20.290Z,22.50
2017-06-21T04:18:46.225Z,22.40
2017-06-21T04:21:12.944Z,22.50
2017-06-21T04:23:38.899Z,22.40
2017-06-21T04:26:05.736Z,22.40
2017-06-21T04:28:31.702Z,22.50
2017-06-21T04:30:57.644Z,22.60
2017-06-21T04:33:23.609Z,22.60
2017-06-21T04:35:51.182Z,22.40
2017-06-21T04:38:17.179Z,22.40
2017-06-21T04:40:43.122Z,22.30
2017-06-21T04:43:09.899Z,22.20
2017-06-21T04:45:35.832Z,22.00
2017-06-21T04:48:01.814Z,22.00
2017-06-21T04:50:27.730Z,21.90
2017-06-21T04:52:53.703Z,21.80
2017-06-21T04:55:19.735Z,21.70
2017-06-21T04:57:45.728Z,21.80
2017-06-21T05:00:11.676Z,21.80
2017-06-21T05:02:37.637Z,21.90
2017-06-21T05:05:03.547Z,21.80
2017-06-21T05:07:29.567Z,21.90
2017-06-21T05:09:55.525Z,22.10
2017-06-21T05:12:21.572Z,22.10
2017-06-21T05:14:48.496Z,22.20
2017-06-21T05:17:15.350Z,22.40
2017-06-21T05:19:41.275Z,22.50
2017-06-21T05:22:07.215Z,22.60
2017-06-21T05:24:33.111Z,22.70
2017-06-21T05:26:59.069Z,22.80
2017-06-21T05:29:27.362Z,22.80
2017-06-21T05:31:53.753Z,22.80
2017-06-21T05:34:19.851Z,23.00
2017-06-21T05:36:46.429Z,23.20
2017-06-21T05:39:12.407Z,23.20
2017-06-21T05:41:38.359Z,23.30
2017-06-21T05:44:04.323Z,23.40
2017-06-21T05:46:30.263Z,23.40
2017-06-21T05:48:56.215Z,23.50
2017-06-21T05:51:22.805Z,23.60
2017-06-21T05:53:48.752Z,23.60
2017-06-21T05:56:14.699Z,23.40
2017-06-21T05:58:40.674Z,23.40
2017-06-21T06:01:06.645Z,23.50
2017-06-21T06:03:32.583Z,23.40
2017-06-21T06:05:58.545Z,23.40
2017-06-21T06:08:24.511Z,23.40
2017-06-21T06:10:50.474Z,23.40
2017-06-21T06:13:17.713Z,23.40
2017-06-21T06:15:44.447Z,23.70
2017-06-21T06:18:10.366Z,23.70
2017-06-21T06:20:36.907Z,23.80
2017-06-21T06:23:02.832Z,24.00
2017-06-21T06:25:28.774Z,24.10
2017-06-21T06:27:54.699Z,24.20
2017-06-21T06:30:20.626Z,24.30
2017-06-21T06:32:46.650Z,24.30
2017-06-21T06:35:12.574Z,24.30
2017-06-21T06:37:38.496Z,24.00
2017-06-21T06:40:04.441Z,23.80
2017-06-21T06:42:30.449Z,23.90
2017-06-21T06:44:56.432Z,24.20
2017-06-21T06:47:22.367Z,24.30
2017-06-21T06:49:48.385Z,24.40
2017-06-21T06:52:14.344Z,24.50
2017-06-21T06:54:40.340Z,24.50
2017-06-21T06:57:06.932Z,24.70
2017-06-21T06:59:34.047Z,24.90
2017-06-21T07:02:00.949Z,25.00
2017-06-21T07:04:28.421Z,25.00
2017-06-21T07:06:54.867Z,25.00
2017-06-21T07:09:20.876Z,25.00
2017-06-21T07:11:46.846Z,25.10
2017-06-21T07:14:12.835Z,25.20
2017-06-21T07:16:38.864Z,25.10
2017-06-21T07:19:04.965Z,25.00
2017-06-21T07:21:30.964Z,25.00
2017-06-21T07:23:58.036Z,25.30
2017-06-21T07:26:23.958Z,25.40
2017-06-21T07:28:49.923Z,25.40
2017-06-21T07:31:15.840Z,25.60
2017-06-21T07:33:41.727Z,25.40
2017-06-21T07:36:07.717Z,25.20
2017-06-21T07:38:33.643Z,24.90
2017-06-21T07:40:59.576Z,24.70
2017-06-21T07:43:25.519Z,24.80
2017-06-21T07:45:51.465Z,25.00
2017-06-21T07:48:17.511Z,25.30
2017-06-21T07:50:44.226Z,25.30
2017-06-21T07:53:10.140Z,25.20
2017-06-21T07:55:36.137Z,25.30
2017-06-21T07:58:02.039Z,25.30
2017-06-21T08:00:28.492Z,25.30
2017-06-21T08:02:54.555Z,25.40
2017-06-21T08:05:21.413Z,25.80
2017-06-21T08:07:47.495Z,25.80
2017-06-21T08:10:13.445Z,26.10
2017-06-21T08:12:39.427Z,25.90
2017-06-21T08:15:05.422Z,25.80
2017-06-21T08:17:31.359Z,25.50
2017-06-21T08:19:57.286Z,25.50
2017-06-21T08:22:23.195Z,25.70
2017-06-21T08:24:49.120Z,26.00
2017-06-21T08:27:15.032Z,26.10
2017-06-21T08:29:40.968Z,26.10
2017-06-21T08:32:08.077Z,26.10
2017-06-21T08:34:34.067Z,26.00
2017-06-21T08:37:00.016Z,26.10
2017-06-21T08:39:25.932Z,26.30
2017-06-21T08:41:51.853Z,26.30
2017-06-21T08:44:17.802Z,26.40
2017-06-21T08:46:43.755Z,26.10
2017-06-21T08:49:09.766Z,26.00
2017-06-21T08:51:35.705Z,26.10
2017-06-21T08:54:01.703Z,26.40
2017-06-21T08:56:27.663Z,26.70
2017-06-21T08:58:53.607Z,26.80
2017-06-21T09:01:19.535Z,26.70
2017-06-21T09:03:45.464Z,26.80
2017-06-21T09:06:11.406Z,27.00
2017-06-21T09:08:37.375Z,27.20
2017-06-21T09:11:03.307Z,27.20
2017-06-21T09:13:29.231Z,27.40
2017-06-21T09:15:55.165Z,27.50
2017-06-21T09:18:21.105Z,27.60
2017-06-21T09:20:47.110Z,27.80
2017-06-21T09:23:13.015Z,27.60
2017-06-21T09:25:39.031Z,27.50
2017-06-21T09:28:04.955Z,27.20
2017-06-21T09:30:31.043Z,27.30
2017-06-21T09:32:57.019Z,27.60
2017-06-21T09:35:22.955Z,27.60
2017-06-21T09:37:48.915Z,27.50
2017-06-21T09:40:14.872Z,27.70
2017-06-21T09:42:40.800Z,27.90
2017-06-21T09:45:06.817Z,28.00
2017-06-21T09:47:32.804Z,27.90
2017-06-21T09:49:58.723Z,27.90
2017-06-21T09:52:24.634Z,28.00
2017-06-21T09:54:50.592Z,28.00
2017-06-21T09:57:16.616Z,28.10
2017-06-21T09:59:42.535Z,28.20
2017-06-21T10:02:08.522Z,28.10
2017-06-21T10:04:34.513Z,28.20
2017-06-21T10:07:00.447Z,28.50
2017-06-21T10:09:27.243Z,28.70
2017-06-21T10:11:53.154Z,28.70
2017-06-21T10:14:19.087Z,28.60
2017-06-21T10:16:45.147Z,28.80
2017-06-21T10:19:11.083Z,28.90
2017-06-21T10:21:37.047Z,28.90
2017-06-21T10:24:02.978Z,29.00
2017-06-21T10:26:28.924Z,29.40
2017-06-21T10:28:54.831Z,29.10
2017-06-21T10:31:20.759Z,29.10
2017-06-21T10:33:46.727Z,29.10
2017-06-21T10:36:12.673Z,28.80
2017-06-21T10:38:38.582Z,28.60
2017-06-21T10:41:04.518Z,28.90
2017-06-21T10:43:30.438Z,29.10
2017-06-21T10:45:56.379Z,29.40
2017-06-21T10:48:22.331Z,29.60
2017-06-21T10:50:48.253Z,29.40
2017-06-21T10:53:14.195Z,29.10
2017-06-21T10:55:40.864Z,29.20
2017-06-21T10:58:06.946Z,29.20
2017-06-21T11:00:32.916Z,29.50
2017-06-21T11:02:58.906Z,29.50
2017-06-21T11:05:24.899Z,29.60
2017-06-21T11:07:51.116Z,29.80
2017-06-21T11:10:17.049Z,30.00
2017-06-21T11:12:43.871Z,30.30
2017-06-21T11:15:09.903Z,30.40
2017-06-21T11:17:36.024Z,30.50
2017-06-21T11:20:01.972Z,30.60
2017-06-21T11:22:27.947Z,30.70
2017-06-21T11:24:53.886Z,30.80
2017-06-21T11:27:19.894Z,30.60
2017-06-21T11:29:46.699Z,30.80
2017-06-21T11:32:12.707Z,31.00
2017-06-21T11:34:38.822Z,30.90
2017-06-21T11:37:04.731Z,30.90
2017-06-21T11:39:30.940Z,30.90
2017-06-21T11:41:56.934Z,31.10
2017-06-21T11:44:22.907Z,31.10
2017-06-21T11:46:49.419Z,30.90
2017-06-21T11:49:15.614Z,30.80
2017-06-21T11:51:41.608Z,31.10
2017-06-21T11:54:09.766Z,31.10
2017-06-21T11:56:35.736Z,31.00
2017-06-21T11:59:02.299Z,31.10
2017-06-21T12:01:28.256Z,31.10
2017-06-21T12:03:54.951Z,31.50
2017-06-21T12:06:21.723Z,31.50
2017-06-21T12:08:47.655Z,31.80
2017-06-21T12:11:13.604Z,31.60
2017-06-21T12:13:39.968Z,31.30
2017-06-21T12:16:06.143Z,31.30
2017-06-21T12:18:32.115Z,31.50
2017-06-21T12:20:58.085Z,31.60
2017-06-21T12:23:24.775Z,31.90
2017-06-21T12:25:51.004Z,31.80
2017-06-21T12:28:17.003Z,32.00
2017-06-21T12:30:42.998Z,32.10
2017-06-21T12:33:11.656Z,32.30
2017-06-21T12:35:40.385Z,32.20
2017-06-21T12:38:06.981Z,32.30
2017-06-21T12:40:34.347Z,32.40
2017-06-21T12:43:03.419Z,32.20
2017-06-21T12:45:30.076Z,31.90
2017-06-21T12:47:56.231Z,31.90
2017-06-21T12:50:23.132Z,32.20
2017-06-21T12:55:23.484Z,32.30
2017-06-21T12:58:05.943Z,32.50
2017-06-21T13:00:31.922Z,32.60
2017-06-21T13:02:58.196Z,32.80
2017-06-21T13:05:24.150Z,33.10
2017-06-21T13:07:50.937Z,33.20
2017-06-21T13:10:16.971Z,33.20
2017-06-21T13:12:43.093Z,33.10
2017-06-21T13:15:09.064Z,33.30
2017-06-21T13:17:35.221Z,33.40
2017-06-21T13:20:01.258Z,33.40
2017-06-21T13:22:27.160Z,33.20
2017-06-21T13:24:54.107Z,33.00
2017-06-21T13:27:25.656Z,32.90
2017-06-21T13:29:51.675Z,33.10
2017-06-21T13:32:17.676Z,33.30
2017-06-21T13:34:44.589Z,33.50
2017-06-21T13:37:10.655Z,33.50
2017-06-21T13:39:37.339Z,33.90
2017-06-21T13:42:03.316Z,34.30
2017-06-21T13:44:30.171Z,34.50
2017-06-21T13:46:56.931Z,34.80
2017-06-21T13:49:23.990Z,35.00
2017-06-21T13:51:49.996Z,35.30
2017-06-21T13:54:16.004Z,35.40
2017-06-21T13:56:42.351Z,35.40
2017-06-21T13:59:08.494Z,35.50
2017-06-21T14:01:34.497Z,35.50
2017-06-21T14:04:00.601Z,35.50
2017-06-21T14:06:27.025Z,35.70
2017-06-21T14:08:53.076Z,35.50
2017-06-21T14:11:19.112Z,35.30
2017-06-21T14:13:46.188Z,34.90
2017-06-21T14:16:12.169Z,34.90
2017-06-21T14:18:39.672Z,34.70
2017-06-21T14:21:05.669Z,34.80
2017-06-21T14:23:31.839Z,35.20
2017-06-21T14:26:02.104Z,35.00
2017-06-21T14:28:28.878Z,34.90
2017-06-21T14:30:55.492Z,34.70
2017-06-21T14:33:21.654Z,34.60
2017-06-21T14:35:49.463Z,34.50
2017-06-21T14:38:15.676Z,34.30
2017-06-21T14:40:41.880Z,34.60
2017-06-21T14:43:09.545Z,35.30
2017-06-21T14:45:35.513Z,35.20
2017-06-21T14:48:04.154Z,35.50
2017-06-21T14:50:31.111Z,35.90
2017-06-21T14:52:57.079Z,36.00
2017-06-21T14:55:23.596Z,35.80
2017-06-21T15:00:26.114Z,35.70
2017-06-21T15:02:52.357Z,35.80
2017-06-21T15:05:19.122Z,36.40
2017-06-21T15:07:45.129Z,36.30
2017-06-21T15:10:12.563Z,36.30
2017-06-21T15:12:38.608Z,36.30
2017-06-21T15:15:04.915Z,36.60
2017-06-21T15:17:30.864Z,36.80
2017-06-21T15:19:56.845Z,36.90
2017-06-21T15:22:23.001Z,36.60
2017-06-21T15:24:49.926Z,36.30
2017-06-21T15:27:15.920Z,36.40
2017-06-21T15:29:42.446Z,36.80
2017-06-21T15:32:08.404Z,36.60
2017-06-21T15:37:07.854Z,36.80
2017-06-21T15:39:34.592Z,36.80
2017-06-21T15:42:00.577Z,36.70
2017-06-21T15:44:26.632Z,36.80
2017-06-21T15:46:52.642Z,36.90
2017-06-21T15:49:18.606Z,36.90
2017-06-21T15:51:44.579Z,36.70
2017-06-21T15:54:11.275Z,36.50
2017-06-21T15:56:38.213Z,36.50
2017-06-21T15:59:04.220Z,36.30
2017-06-21T16:01:30.226Z,36.60
2017-06-21T16:03:56.178Z,36.70
2017-06-21T16:06:22.474Z,36.90
2017-06-21T16:08:48.696Z,36.80
2017-06-21T16:11:15.066Z,36.30
2017-06-21T16:13:41.038Z,35.70
2017-06-21T16:16:07.059Z,35.60
2017-06-21T16:18:32.979Z,35.70
2017-06-21T16:20:58.927Z,35.40
2017-06-21T16:23:24.875Z,35.10
2017-06-21T16:25:50.937Z,34.90
2017-06-21T16:28:16.956Z,34.90
2017-06-21T16:30:42.907Z,35.00
2017-06-21T16:33:09.036Z,35.10
2017-06-21T16:35:35.014Z,35.30
2017-06-21T16:38:01.011Z,35.60
2017-06-21T16:40:26.946Z,36.00
2017-06-21T16:42:53.011Z,35.90
2017-06-21T16:45:18.976Z,35.80
2017-06-21T16:47:44.955Z,35.60
2017-06-21T16:50:10.979Z,35.70
2017-06-21T16:52:37.715Z,36.30
2017-06-21T16:55:03.723Z,36.20
2017-06-21T16:57:30.427Z,35.90
2017-06-21T16:59:56.388Z,35.80
2017-06-21T17:02:22.336Z,35.40
2017-06-21T17:04:48.274Z,35.00
2017-06-21T17:07:14.324Z,35.00
2017-06-21T17:09:40.935Z,35.30
2017-06-21T17:12:06.849Z,35.40
2017-06-21T17:14:32.799Z,35.30
2017-06-21T17:16:58.769Z,35.30
2017-06-21T17:19:24.745Z,35.40
2017-06-21T17:21:52.350Z,35.50
2017-06-21T17:24:18.372Z,35.80
2017-06-21T17:26:44.377Z,35.90
2017-06-21T17:29:10.376Z,36.10
2017-06-21T17:31:36.374Z,35.80
2017-06-21T17:34:02.337Z,35.40
2017-06-21T17:36:28.292Z,35.50
2017-06-21T17:38:54.386Z,35.60
2017-06-21T17:41:20.381Z,35.40
2017-06-21T17:43:46.533Z,35.00
2017-06-21T17:46:12.497Z,35.20
2017-06-21T17:48:38.473Z,35.10
2017-06-21T17:51:04.478Z,35.00
2017-06-21T17:53:30.568Z,34.70
2017-06-21T17:55:56.500Z,34.60
2017-06-21T17:58:22.706Z,34.50
2017-06-21T18:00:48.697Z,34.70
2017-06-21T18:03:14.668Z,34.70
2017-06-21T18:05:40.622Z,34.90
2017-06-21T18:08:06.870Z,35.00
2017-06-21T18:10:33.647Z,34.80
2017-06-21T18:12:59.619Z,34.80
2017-06-21T18:15:25.600Z,34.60
2017-06-21T18:17:51.547Z,34.50
2017-06-21T18:20:17.663Z,34.30
2017-06-21T18:22:43.839Z,34.10
2017-06-21T18:25:09.794Z,34.00
2017-06-21T18:27:35.740Z,33.80
2017-06-21T18:30:01.759Z,33.60
2017-06-21T18:32:27.700Z,33.60
2017-06-21T18:34:53.632Z,33.50
2017-06-21T18:37:19.595Z,33.50
2017-06-21T18:39:45.515Z,33.50
2017-06-21T18:42:11.452Z,33.40
2017-06-21T18:44:37.520Z,33.40
2017-06-21T18:47:04.197Z,33.20
2017-06-21T18:49:30.201Z,33.20
2017-06-21T18:51:56.151Z,33.30
2017-06-21T18:54:22.199Z,33.40
2017-06-21T18:56:48.107Z,33.30
2017-06-21T18:59:14.636Z,33.10
2017-06-21T19:01:46.572Z,33.00
2017-06-21T19:04:12.643Z,32.80
2017-06-21T19:06:38.677Z,32.70
2017-06-21T19:09:05.736Z,32.60
2017-06-21T19:11:31.665Z,32.40
2017-06-21T19:13:57.689Z,32.30
2017-06-21T19:16:23.615Z,32.20
2017-06-21T19:18:49.573Z,32.00
2017-06-21T19:21:15.492Z,31.80
2017-06-21T19:23:41.453Z,31.80
2017-06-21T19:26:08.749Z,31.80
2017-06-21T19:28:37.646Z,31.60
2017-06-21T19:31:03.583Z,31.60
2017-06-21T19:33:29.548Z,31.40
2017-06-21T19:35:57.726Z,31.40
2017-06-21T19:38:24.615Z,31.40
2017-06-21T19:40:50.656Z,31.10
2017-06-21T19:43:16.607Z,31.10
2017-06-21T19:45:42.567Z,30.90
2017-06-21T19:48:08.527Z,30.80
2017-06-21T19:50:34.688Z,30.80
2017-06-21T19:53:01.592Z,30.70
2017-06-21T19:55:27.525Z,30.70
2017-06-21T19:57:53.472Z,30.60
2017-06-21T20:00:20.484Z,30.40
2017-06-21T20:02:53.321Z,30.30
2017-06-21T20:05:20.535Z,30.10
2017-06-21T20:07:46.769Z,30.00
2017-06-21T20:10:12.700Z,29.90
2017-06-21T20:12:38.652Z,29.90
2017-06-21T20:15:04.680Z,29.80
2017-06-21T20:17:30.651Z,29.80
2017-06-21T20:19:56.567Z,29.70
2017-06-21T20:22:22.575Z,29.50
2017-06-21T20:24:48.513Z,29.50
2017-06-21T20:27:14.432Z,29.40
2017-06-21T20:29:41.105Z,29.30
2017-06-21T20:32:07.037Z,29.30
2017-06-21T20:34:32.960Z,29.30
2017-06-21T20:36:58.927Z,29.30
2017-06-21T20:39:24.875Z,29.30
2017-06-21T20:41:50.945Z,29.30
2017-06-21T20:44:17.035Z,29.20
2017-06-21T20:46:43.075Z,29.10
2017-06-21T20:49:09.881Z,28.90
2017-06-21T20:51:36.536Z,28.90
2017-06-21T20:54:02.455Z,28.90
2017-06-21T20:56:28.407Z,28.90
2017-06-21T20:58:54.317Z,28.90
2017-06-21T21:01:20.324Z,28.90
2017-06-21T21:03:46.299Z,28.90
2017-06-21T21:06:12.232Z,28.80
2017-06-21T21:08:38.926Z,28.50
2017-06-21T21:11:04.868Z,28.40
2017-06-21T21:13:30.803Z,28.50
2017-06-21T21:15:56.741Z,28.40
2017-06-21T21:18:22.658Z,28.40
2017-06-21T21:20:48.635Z,28.40
2017-06-21T21:23:14.599Z,28.50
2017-06-21T21:25:40.534Z,28.50
2017-06-21T21:28:06.607Z,28.30
2017-06-21T21:30:32.548Z,28.30
2017-06-21T21:32:58.495Z,28.20
2017-06-21T21:35:24.407Z,28.10
2017-06-21T21:37:50.344Z,28.00
2017-06-21T21:40:16.291Z,27.80
2017-06-21T21:42:42.212Z,27.80
2017-06-21T21:45:08.143Z,27.80
2017-06-21T21:47:34.075Z,27.80
2017-06-21T21:50:00.112Z,27.80
2017-06-21T21:52:26.043Z,27.80
2017-06-21T21:54:51.993Z,27.90
2017-06-21T21:57:17.899Z,27.90
2017-06-21T21:59:43.880Z,27.80
2017-06-21T22:02:09.864Z,27.80
2017-06-21T22:04:35.831Z,27.80
2017-06-21T22:07:01.811Z,27.70
2017-06-21T22:09:27.747Z,27.50
2017-06-21T22:11:53.668Z,27.40
2017-06-21T22:14:19.595Z,27.40
2017-06-21T22:16:45.519Z,27.40
2017-06-21T22:19:11.503Z,27.40
2017-06-21T22:21:37.435Z,27.30
2017-06-21T22:24:03.388Z,27.30
2017-06-21T22:26:29.333Z,27.20
2017-06-21T22:28:55.243Z,27.20
2017-06-21T22:31:21.253Z,27.20
2017-06-21T22:33:47.226Z,27.30
2017-06-21T22:36:13.155Z,27.20
2017-06-21T22:38:39.076Z,27.20
2017-06-21T22:41:04.997Z,27.10
2017-06-21T22:43:30.939Z,27.10
2017-06-21T22:45:56.886Z,27.00
2017-06-21T22:48:23.035Z,26.90
2017-06-21T22:50:49.005Z,26.90
2017-06-21T22:53:14.943Z,26.70
2017-06-21T22:55:40.874Z,26.70
2017-06-21T22:58:06.836Z,26.60
2017-06-21T23:00:32.791Z,26.70
2017-06-21T23:02:58.737Z,26.70
2017-06-21T23:05:24.663Z,26.70
2017-06-21T23:07:50.624Z,26.70
2017-06-21T23:10:16.551Z,26.80
2017-06-21T23:12:42.473Z,26.80
2017-06-21T23:15:08.411Z,26.80
2017-06-21T23:17:34.412Z,26.80
2017-06-21T23:20:00.431Z,26.70
2017-06-21T23:22:27.151Z,26.60
2017-06-21T23:24:53.097Z,26.60
2017-06-21T23:27:19.059Z,26.60
2017-06-21T23:29:45.007Z,26.60
2017-06-21T23:32:10.938Z,26.60
2017-06-21T23:34:36.980Z,26.60
2017-06-21T23:37:02.911Z,26.50
2017-06-21T23:39:28.827Z,26.50
2017-06-21T23:41:54.775Z,26.40
2017-06-21T23:44:20.703Z,26.40
2017-06-21T23:46:46.650Z,26.40
2017-06-21T23:49:13.349Z,26.20
2017-06-21T23:51:39.320Z,26.20
2017-06-21T23:54:05.295Z,26.20
2017-06-21T23:56:31.286Z,26.10
2017-06-21T23:58:57.231Z,26.10
